createdAt,value
2019-04-20T00:02:19.354Z,6.50
2019-04-20T00:04:49.427Z,6.50
2019-04-20T00:07:23.973Z,6.50
2019-04-20T00:09:56.655Z,6.40
2019-04-20T00:12:33.617Z,6.30
2019-04-20T00:14:52.105Z,6.30
2019-04-20T00:17:22.030Z,6.20
2019-04-20T00:19:54.594Z,6.10
2019-04-20T00:22:34.389Z,6.10
2019-04-20T00:25:15.936Z,6.00
2019-04-20T00:28:19.837Z,5.90
2019-04-20T00:30:50.433Z,5.90
2019-04-20T00:33:09.377Z,5.90
2019-04-20T00:35:32.135Z,5.90
2019-04-20T00:38:01.394Z,5.90
2019-04-20T00:40:30.650Z,5.80
2019-04-20T00:43:01.377Z,5.80
2019-04-20T00:45:33.763Z,5.70
2019-04-20T00:48:07.970Z,5.70
2019-04-20T00:50:44.488Z,5.60
2019-04-20T00:53:14.856Z,5.60
2019-04-20T00:55:33.811Z,5.50
2019-04-20T00:58:11.825Z,5.50
2019-04-20T01:00:59.971Z,5.50
2019-04-20T01:03:20.944Z,5.50
2019-04-20T01:06:09.700Z,5.50
2019-04-20T01:08:23.371Z,5.50
2019-04-20T01:10:55.723Z,5.40
2019-04-20T01:13:24.974Z,5.40
2019-04-20T01:15:58.857Z,5.30
2019-04-20T01:18:24.564Z,5.30
2019-04-20T01:20:53.678Z,5.30
2019-04-20T01:23:29.219Z,5.20
2019-04-20T01:26:01.440Z,5.20
2019-04-20T01:28:37.523Z,5.20
2019-04-20T01:31:09.214Z,5.10
2019-04-20T01:33:37.308Z,5.10
2019-04-20T01:36:14.725Z,5.00
2019-04-20T01:38:44.693Z,5.00
2019-04-20T01:40:59.045Z,4.90
2019-04-20T01:43:29.130Z,4.90
2019-04-20T01:46:07.562Z,4.90
2019-04-20T01:48:33.977Z,4.80
2019-04-20T01:51:09.306Z,4.80
2019-04-20T01:53:56.782Z,4.80
2019-04-20T01:56:27.877Z,4.70
2019-04-20T01:59:16.155Z,4.70
2019-04-20T02:01:59.259Z,4.70
2019-04-20T02:04:52.541Z,4.60
2019-04-20T02:07:28.191Z,4.50
2019-04-20T02:09:58.379Z,4.50
2019-04-20T02:12:28.666Z,4.60
2019-04-20T02:14:58.960Z,4.60
2019-04-20T02:17:31.921Z,4.60
2019-04-20T02:20:15.666Z,4.50
2019-04-20T02:22:44.848Z,4.50
2019-04-20T02:24:57.131Z,4.50
2019-04-20T02:27:34.472Z,4.40
2019-04-20T02:30:32.477Z,4.30
2019-04-20T02:35:56.211Z,4.30
2019-04-20T02:38:46.456Z,4.20
2019-04-20T02:43:46.521Z,4.10
2019-04-20T02:45:57.782Z,4.10
2019-04-20T02:48:29.856Z,4.00
2019-04-20T02:53:46.917Z,4.00
2019-04-20T02:56:17.442Z,4.00
2019-04-20T02:58:41.519Z,4.00
2019-04-20T03:01:15.988Z,3.90
2019-04-20T03:03:32.827Z,3.90
2019-04-20T03:06:08.462Z,3.80
2019-04-20T03:08:52.623Z,3.80
2019-04-20T03:11:26.231Z,3.80
2019-04-20T03:13:53.167Z,3.80
2019-04-20T03:16:17.751Z,3.70
2019-04-20T03:18:44.551Z,3.60
2019-04-20T03:21:24.903Z,3.60
2019-04-20T03:24:03.953Z,3.60
2019-04-20T03:26:31.313Z,3.50
2019-04-20T03:29:07.891Z,3.50
2019-04-20T03:37:08.454Z,3.50
2019-04-20T03:39:18.027Z,3.40
2019-04-20T03:41:39.414Z,3.40
2019-04-20T03:44:08.969Z,3.40
2019-04-20T03:46:41.945Z,3.50
2019-04-20T03:49:21.531Z,3.40
2019-04-20T03:51:57.376Z,3.30
2019-04-20T03:54:28.807Z,3.30
2019-04-20T03:57:12.425Z,3.30
2019-04-20T03:59:51.028Z,3.30
2019-04-20T04:02:54.686Z,3.20
2019-04-20T04:05:23.860Z,3.10
2019-04-20T04:07:44.849Z,3.10
2019-04-20T04:10:20.728Z,3.10
2019-04-20T04:13:16.897Z,3.00
2019-04-20T04:15:52.257Z,3.00
2019-04-20T04:18:26.017Z,3.00
2019-04-20T04:20:59.041Z,3.00
2019-04-20T04:23:36.600Z,3.00
2019-04-20T04:26:08.577Z,3.00
2019-04-20T04:28:37.128Z,3.00
2019-04-20T04:31:12.163Z,3.10
2019-04-20T04:36:10.515Z,3.20
2019-04-20T04:38:47.482Z,3.20
2019-04-20T04:41:19.943Z,3.30
2019-04-20T04:43:44.413Z,3.30
2019-04-20T04:45:57.415Z,3.40
2019-04-20T04:48:32.145Z,3.50
2019-04-20T04:51:03.866Z,3.60
2019-04-20T04:53:42.983Z,3.70
2019-04-20T04:56:05.814Z,3.80
2019-04-20T04:58:29.853Z,3.90
2019-04-20T05:01:05.669Z,4.60
2019-04-20T05:04:01.093Z,5.20
2019-04-20T05:06:26.417Z,5.30
2019-04-20T05:08:45.312Z,5.20
2019-04-20T05:11:11.123Z,5.20
2019-04-20T05:13:48.894Z,5.30
2019-04-20T05:16:28.357Z,5.20
2019-04-20T05:19:03.340Z,5.40
2019-04-20T05:21:49.865Z,5.50
2019-04-20T05:24:25.572Z,5.60
2019-04-20T05:27:09.220Z,5.70
2019-04-20T05:29:24.090Z,5.90
2019-04-20T05:31:54.351Z,6.00
2019-04-20T05:34:39.018Z,6.10
2019-04-20T05:37:17.609Z,6.30
2019-04-20T05:39:39.146Z,6.50
2019-04-20T05:42:12.353Z,6.70
2019-04-20T05:44:46.069Z,6.80
2019-04-20T05:47:19.947Z,7.00
2019-04-20T05:49:46.828Z,7.20
2019-04-20T05:52:31.072Z,7.40
2019-04-20T05:54:51.103Z,7.60
2019-04-20T05:57:27.839Z,7.80
2019-04-20T05:59:56.190Z,8.00
2019-04-20T06:02:23.391Z,8.10
2019-04-20T06:05:00.488Z,8.30
2019-04-20T06:07:24.981Z,8.50
2019-04-20T06:09:54.647Z,8.60
2019-04-20T06:12:23.921Z,8.70
2019-04-20T06:15:18.673Z,8.80
2019-04-20T06:18:02.821Z,8.90
2019-04-20T06:20:46.337Z,9.10
2019-04-20T06:23:45.610Z,9.30
2019-04-20T06:26:20.555Z,9.40
2019-04-20T06:28:33.751Z,9.50
2019-04-20T06:31:10.720Z,9.60
2019-04-20T06:34:25.644Z,9.70
2019-04-20T06:36:47.246Z,9.90
2019-04-20T06:39:16.827Z,9.90
2019-04-20T06:44:26.645Z,10.10
2019-04-20T06:46:52.456Z,10.30
2019-04-20T06:49:25.575Z,10.50
2019-04-20T06:51:52.761Z,10.50
2019-04-20T06:54:20.935Z,10.50
2019-04-20T06:57:01.651Z,10.60
2019-04-20T06:59:39.045Z,10.70
2019-04-20T07:02:11.548Z,10.80
2019-04-20T07:07:10.183Z,11.40
2019-04-20T07:12:03.154Z,12.10
2019-04-20T07:14:27.588Z,13.20
2019-04-20T07:20:08.343Z,14.60
2019-04-20T07:22:49.226Z,17.00
2019-04-20T07:25:18.748Z,20.40
2019-04-20T07:27:49.671Z,22.60
2019-04-20T07:30:16.556Z,25.10
2019-04-20T07:32:52.387Z,26.90
2019-04-20T07:35:19.660Z,26.10
2019-04-20T07:40:20.304Z,27.30
2019-04-20T07:42:56.516Z,28.70
2019-04-20T07:48:05.268Z,31.30
2019-04-20T07:50:21.787Z,31.30
2019-04-20T07:52:46.270Z,31.50
2019-04-20T07:57:55.100Z,32.10
2019-04-20T08:00:41.990Z,31.50
2019-04-20T08:03:39.682Z,29.80
2019-04-20T08:06:35.346Z,30.60
2019-04-20T08:09:13.549Z,31.20
2019-04-20T08:11:50.355Z,31.40
2019-04-20T08:16:58.649Z,32.30
2019-04-20T08:19:18.861Z,31.40
2019-04-20T08:22:12.328Z,28.00
2019-04-20T08:24:17.080Z,26.70
2019-04-20T08:26:39.942Z,27.10
2019-04-20T08:29:33.829Z,25.80
2019-04-20T08:32:27.100Z,25.70
2019-04-20T08:34:59.523Z,24.70
2019-04-20T08:37:26.595Z,23.80
2019-04-20T08:40:05.338Z,23.50
2019-04-20T08:42:31.268Z,24.30
2019-04-20T08:45:03.839Z,24.50
2019-04-20T08:47:47.397Z,24.90
2019-04-20T08:50:26.935Z,24.90
2019-04-20T08:55:16.476Z,27.30
2019-04-20T08:57:29.298Z,27.00
2019-04-20T09:00:01.507Z,27.00
2019-04-20T09:02:30.477Z,28.20
2019-04-20T09:05:04.821Z,29.30
2019-04-20T09:07:35.239Z,29.50
2019-04-20T09:10:25.609Z,30.60
2019-04-20T09:12:45.181Z,31.20
2019-04-20T09:15:03.830Z,30.50
2019-04-20T09:17:48.456Z,29.30
2019-04-20T09:20:21.880Z,28.10
2019-04-20T09:23:08.165Z,27.00
2019-04-20T09:25:54.529Z,27.90
2019-04-20T09:28:32.270Z,29.20
2019-04-20T09:31:15.710Z,27.90
2019-04-20T09:33:55.565Z,27.60
2019-04-20T09:36:23.667Z,28.30
2019-04-20T09:39:11.248Z,26.70
2019-04-20T09:44:13.433Z,26.00
2019-04-20T09:46:49.260Z,25.50
2019-04-20T09:49:25.947Z,25.60
2019-04-20T09:52:05.229Z,26.60
2019-04-20T09:54:31.056Z,25.80
2019-04-20T09:57:07.509Z,25.70
2019-04-20T09:59:33.246Z,25.50
2019-04-20T10:01:54.701Z,26.10
2019-04-20T10:04:17.550Z,26.20
2019-04-20T10:06:47.656Z,26.20
2019-04-20T10:09:22.389Z,25.50
2019-04-20T10:11:48.759Z,24.30
2019-04-20T10:14:18.219Z,23.40
2019-04-20T10:16:47.417Z,22.60
2019-04-20T10:19:20.657Z,22.20
2019-04-20T10:21:48.368Z,22.00
2019-04-20T10:24:18.864Z,22.00
2019-04-20T10:26:48.666Z,22.20
2019-04-20T10:29:17.667Z,22.40
2019-04-20T10:31:51.477Z,22.60
2019-04-20T10:34:18.045Z,22.60
2019-04-20T10:37:07.312Z,22.80
2019-04-20T10:39:40.522Z,23.10
2019-04-20T10:42:10.119Z,23.40
2019-04-20T10:44:39.398Z,23.70
2019-04-20T10:47:09.138Z,24.00
2019-04-20T10:49:38.439Z,23.80
2019-04-20T10:52:07.676Z,23.20
2019-04-20T10:54:38.414Z,22.70
2019-04-20T10:57:07.994Z,22.70
2019-04-20T10:59:37.289Z,22.60
2019-04-20T11:02:07.783Z,23.00
2019-04-20T11:04:37.196Z,23.20
2019-04-20T11:07:06.553Z,23.50
2019-04-20T11:09:36.643Z,23.70
2019-04-20T11:12:06.391Z,24.00
2019-04-20T11:14:40.067Z,24.20
2019-04-20T11:17:06.700Z,24.30
2019-04-20T11:19:37.000Z,24.50
2019-04-20T11:22:06.493Z,24.70
2019-04-20T11:24:36.458Z,24.90
2019-04-20T11:27:06.085Z,24.80
2019-04-20T11:29:36.049Z,24.90
2019-04-20T11:32:05.308Z,24.90
2019-04-20T11:34:38.143Z,24.90
2019-04-20T11:37:06.892Z,24.90
2019-04-20T11:39:36.995Z,25.00
2019-04-20T11:42:06.205Z,25.30
2019-04-20T11:44:36.484Z,25.40
2019-04-20T11:47:06.416Z,25.30
2019-04-20T11:49:35.570Z,25.10
2019-04-20T11:52:05.546Z,25.10
2019-04-20T11:54:34.758Z,24.90
2019-04-20T11:57:03.863Z,24.50
2019-04-20T11:59:32.899Z,24.30
2019-04-20T12:02:29.081Z,24.30
2019-04-20T12:05:10.249Z,24.30
2019-04-20T12:07:26.810Z,24.10
2019-04-20T12:09:59.386Z,23.60
2019-04-20T12:12:35.235Z,23.70
2019-04-20T12:14:58.729Z,24.10
2019-04-20T12:17:29.103Z,24.00
2019-04-20T12:19:59.858Z,23.90
2019-04-20T12:22:30.382Z,24.10
2019-04-20T12:25:00.400Z,24.20
2019-04-20T12:27:30.470Z,24.40
2019-04-20T12:30:01.862Z,24.50
2019-04-20T12:32:35.244Z,24.60
2019-04-20T12:35:02.613Z,24.30
2019-04-20T12:37:34.161Z,24.10
2019-04-20T12:40:03.228Z,24.00
2019-04-20T12:42:32.922Z,24.00
2019-04-20T12:45:02.096Z,24.10
2019-04-20T12:47:32.108Z,24.10
2019-04-20T12:50:01.366Z,24.00
2019-04-20T12:52:30.719Z,24.10
2019-04-20T12:55:02.683Z,24.10
2019-04-20T12:57:30.458Z,24.20
2019-04-20T12:59:59.569Z,23.80
2019-04-20T13:02:29.310Z,23.50
2019-04-20T13:04:59.531Z,23.40
2019-04-20T13:07:31.568Z,23.50
2019-04-20T13:10:02.149Z,23.70
2019-04-20T13:12:56.918Z,23.80
2019-04-20T13:15:49.818Z,23.60
2019-04-20T13:18:25.402Z,23.50
2019-04-20T13:20:57.891Z,23.30
2019-04-20T13:23:26.757Z,23.40
2019-04-20T13:25:57.110Z,23.50
2019-04-20T13:28:26.266Z,23.60
2019-04-20T13:30:55.611Z,23.50
2019-04-20T13:33:25.141Z,23.50
2019-04-20T13:35:54.494Z,23.20
2019-04-20T13:38:23.506Z,23.00
2019-04-20T13:40:53.652Z,23.00
2019-04-20T13:43:23.797Z,23.00
2019-04-20T13:45:53.192Z,23.00
2019-04-20T13:48:22.243Z,23.00
2019-04-20T13:50:51.871Z,23.10
2019-04-20T13:53:21.265Z,23.20
2019-04-20T13:55:50.273Z,23.00
2019-04-20T13:58:38.177Z,22.90
2019-04-20T14:01:26.439Z,22.60
2019-04-20T14:04:05.385Z,22.60
2019-04-20T14:06:35.306Z,22.70
2019-04-20T14:09:07.507Z,22.80
2019-04-20T14:11:36.723Z,22.80
2019-04-20T14:14:08.112Z,22.60
2019-04-20T14:16:37.001Z,22.60
2019-04-20T14:19:07.178Z,22.60
2019-04-20T14:21:36.465Z,22.60
2019-04-20T14:24:06.668Z,22.60
2019-04-20T14:26:38.804Z,22.70
2019-04-20T14:29:07.280Z,22.70
2019-04-20T14:31:37.497Z,22.70
2019-04-20T14:34:06.906Z,22.70
2019-04-20T14:36:37.127Z,22.50
2019-04-20T14:39:09.817Z,22.40
2019-04-20T14:41:40.370Z,22.40
2019-04-20T14:44:09.963Z,22.40
2019-04-20T14:46:40.002Z,22.40
2019-04-20T14:49:10.343Z,22.40
2019-04-20T14:51:39.669Z,22.50
2019-04-20T14:54:09.623Z,22.60
2019-04-20T14:56:38.767Z,22.50
2019-04-20T14:59:13.759Z,22.50
2019-04-20T15:01:46.183Z,22.50
2019-04-20T15:04:18.596Z,22.60
2019-04-20T15:06:46.633Z,22.60
2019-04-20T15:09:16.819Z,22.70
2019-04-20T15:11:46.684Z,22.60
2019-04-20T15:14:16.510Z,22.50
2019-04-20T15:16:46.747Z,22.40
2019-04-20T15:19:35.843Z,22.40
2019-04-20T15:22:07.420Z,22.30
2019-04-20T15:24:37.691Z,22.30
2019-04-20T15:27:06.828Z,22.30
2019-04-20T15:29:36.093Z,22.30
2019-04-20T15:32:06.035Z,22.20
2019-04-20T15:34:35.319Z,22.00
2019-04-20T15:37:05.516Z,21.90
2019-04-20T15:39:34.961Z,21.90
2019-04-20T15:42:05.330Z,21.90
2019-04-20T15:44:35.571Z,21.90
2019-04-20T15:47:05.031Z,21.80
2019-04-20T15:49:34.035Z,21.80
2019-04-20T15:52:03.910Z,21.90
2019-04-20T15:54:33.847Z,21.80
2019-04-20T15:57:12.307Z,21.70
2019-04-20T15:59:34.732Z,21.70
2019-04-20T16:02:35.731Z,21.60
2019-04-20T16:05:16.578Z,21.60
2019-04-20T16:07:52.538Z,21.50
2019-04-20T16:10:17.065Z,21.50
2019-04-20T16:12:46.896Z,21.40
2019-04-20T16:15:16.222Z,21.40
2019-04-20T16:17:47.797Z,21.30
2019-04-20T16:20:20.113Z,21.30
2019-04-20T16:22:46.889Z,21.30
2019-04-20T16:25:31.850Z,21.20
2019-04-20T16:28:01.527Z,21.10
2019-04-20T16:30:31.808Z,21.00
2019-04-20T16:33:00.882Z,21.00
2019-04-20T16:35:30.046Z,20.90
2019-04-20T16:38:00.354Z,20.80
2019-04-20T16:40:29.792Z,20.70
2019-04-20T16:42:58.933Z,20.60
2019-04-20T16:45:27.988Z,20.50
2019-04-20T16:47:58.877Z,20.40
2019-04-20T16:50:28.918Z,20.30
2019-04-20T16:52:59.112Z,20.20
2019-04-20T16:55:28.484Z,20.10
2019-04-20T16:57:57.581Z,20.00
2019-04-20T17:00:27.520Z,19.80
2019-04-20T17:02:56.714Z,19.70
2019-04-20T17:05:25.943Z,19.60
2019-04-20T17:07:57.399Z,19.40
2019-04-20T17:10:26.947Z,19.30
2019-04-20T17:12:55.990Z,19.20
2019-04-20T17:15:25.579Z,19.10
2019-04-20T17:17:57.042Z,18.90
2019-04-20T17:20:27.060Z,18.80
2019-04-20T17:22:56.477Z,18.70
2019-04-20T17:25:25.893Z,18.60
2019-04-20T17:28:13.281Z,18.40
2019-04-20T17:30:56.990Z,18.20
2019-04-20T17:33:46.528Z,18.00
2019-04-20T17:36:14.423Z,17.90
2019-04-20T17:38:41.981Z,17.70
2019-04-20T17:41:23.761Z,17.60
2019-04-20T17:43:57.646Z,17.50
2019-04-20T17:46:17.366Z,17.40
2019-04-20T17:48:51.231Z,17.20
2019-04-20T17:51:29.095Z,17.00
2019-04-20T17:54:06.462Z,16.90
2019-04-20T17:56:42.398Z,16.70
2019-04-20T17:59:12.480Z,16.40
2019-04-20T18:02:11.946Z,16.20
2019-04-20T18:05:12.633Z,16.00
2019-04-20T18:07:41.088Z,15.80
2019-04-20T18:10:13.075Z,15.70
2019-04-20T18:12:30.865Z,15.60
2019-04-20T18:15:10.772Z,15.40
2019-04-20T18:18:02.695Z,15.30
2019-04-20T18:20:20.894Z,15.10
2019-04-20T18:22:55.134Z,14.90
2019-04-20T18:25:52.651Z,14.80
2019-04-20T18:28:04.421Z,14.70
2019-04-20T18:30:48.805Z,14.50
2019-04-20T18:33:11.481Z,14.40
2019-04-20T18:35:45.575Z,14.30
2019-04-20T18:38:14.853Z,14.20
2019-04-20T18:40:51.454Z,14.20
2019-04-20T18:43:18.760Z,14.10
2019-04-20T18:46:05.393Z,14.00
2019-04-20T18:48:37.933Z,13.90
2019-04-20T18:50:47.360Z,13.80
2019-04-20T18:53:24.726Z,13.70
2019-04-20T18:55:53.820Z,13.60
2019-04-20T18:58:17.389Z,13.50
2019-04-20T19:00:51.240Z,13.40
2019-04-20T19:03:26.888Z,13.30
2019-04-20T19:05:49.610Z,13.30
2019-04-20T19:08:19.254Z,13.10
2019-04-20T19:11:00.612Z,13.00
2019-04-20T19:13:42.365Z,13.00
2019-04-20T19:16:38.173Z,12.90
2019-04-20T19:19:23.390Z,12.80
2019-04-20T19:21:40.974Z,12.60
2019-04-20T19:24:14.184Z,12.40
2019-04-20T19:26:47.661Z,12.40
2019-04-20T19:29:20.486Z,12.30
2019-04-20T19:32:03.981Z,12.20
2019-04-20T19:34:29.962Z,12.20
2019-04-20T19:36:57.506Z,12.10
2019-04-20T19:39:30.333Z,12.00
2019-04-20T19:41:52.857Z,11.90
2019-04-20T19:44:27.280Z,11.90
2019-04-20T19:47:11.347Z,11.90
2019-04-20T19:49:30.489Z,11.70
2019-04-20T19:52:20.126Z,11.60
2019-04-20T19:54:42.985Z,11.40
2019-04-20T19:57:05.126Z,11.20
2019-04-20T19:59:31.003Z,11.10
2019-04-20T20:01:51.880Z,11.00
2019-04-20T20:04:21.685Z,10.90
2019-04-20T20:06:57.434Z,10.90
2019-04-20T20:09:21.874Z,10.80
2019-04-20T20:11:51.516Z,10.70
2019-04-20T20:14:31.977Z,10.60
2019-04-20T20:17:12.929Z,10.40
2019-04-20T20:19:38.498Z,10.30
2019-04-20T20:22:06.667Z,10.20
2019-04-20T20:24:25.161Z,10.10
2019-04-20T20:27:00.486Z,10.00
2019-04-20T20:29:35.210Z,9.90
2019-04-20T20:32:13.346Z,9.80
2019-04-20T20:34:34.552Z,9.70
2019-04-20T20:37:03.175Z,9.70
2019-04-20T20:39:31.705Z,9.60
2019-04-20T20:42:10.813Z,9.60
2019-04-20T20:44:41.171Z,9.40
2019-04-20T20:47:29.870Z,9.40
2019-04-20T20:50:01.431Z,9.20
2019-04-20T20:52:21.900Z,9.20
2019-04-20T20:54:45.923Z,9.10
2019-04-20T20:57:11.398Z,9.00
2019-04-20T20:59:46.889Z,9.10
2019-04-20T21:02:13.977Z,9.00
2019-04-20T21:04:37.639Z,9.00
2019-04-20T21:07:06.832Z,8.90
2019-04-20T21:09:37.490Z,8.80
2019-04-20T21:12:10.883Z,8.80
2019-04-20T21:14:40.595Z,8.80
2019-04-20T21:17:15.626Z,8.80
2019-04-20T21:19:58.318Z,8.80
2019-04-20T21:22:16.977Z,8.70
2019-04-20T21:24:45.397Z,8.70
2019-04-20T21:27:16.490Z,8.80
2019-04-20T21:29:50.771Z,8.70
2019-04-20T21:32:17.653Z,8.70
2019-04-20T21:34:51.864Z,8.80
2019-04-20T21:37:19.434Z,8.70
2019-04-20T21:39:53.372Z,8.70
2019-04-20T21:42:21.209Z,8.60
2019-04-20T21:44:50.142Z,8.70
2019-04-20T21:47:25.894Z,8.60
2019-04-20T21:49:57.831Z,8.60
2019-04-20T21:52:27.209Z,8.60
2019-04-20T21:54:52.101Z,8.50
2019-04-20T21:57:22.076Z,8.40
2019-04-20T21:59:54.254Z,8.30
2019-04-20T22:02:29.737Z,8.30
2019-04-20T22:04:53.530Z,8.20
2019-04-20T22:07:22.892Z,8.10
2019-04-20T22:09:53.653Z,8.10
2019-04-20T22:12:23.609Z,8.00
2019-04-20T22:14:58.987Z,7.90
2019-04-20T22:17:28.838Z,7.90
2019-04-20T22:20:07.668Z,7.80
2019-04-20T22:22:45.388Z,7.80
2019-04-20T22:25:08.306Z,7.70
2019-04-20T22:27:31.267Z,7.70
2019-04-20T22:29:57.789Z,7.60
2019-04-20T22:32:28.016Z,7.60
2019-04-20T22:35:03.213Z,7.50
2019-04-20T22:37:36.485Z,7.50
2019-04-20T22:40:06.913Z,7.40
2019-04-20T22:42:40.156Z,7.40
2019-04-20T22:45:11.583Z,7.40
2019-04-20T22:47:39.112Z,7.40
2019-04-20T22:50:39.578Z,7.50
2019-04-20T22:52:49.284Z,7.50
2019-04-20T22:55:36.334Z,7.40
2019-04-20T22:57:53.868Z,7.40
2019-04-20T23:00:28.392Z,7.40
2019-04-20T23:02:47.042Z,7.20
2019-04-20T23:05:16.672Z,7.10
2019-04-20T23:07:46.632Z,7.10
2019-04-20T23:10:18.226Z,7.10
2019-04-20T23:12:51.420Z,7.10
2019-04-20T23:15:18.439Z,7.10
2019-04-20T23:17:50.434Z,7.00
2019-04-20T23:20:25.311Z,7.00
2019-04-20T23:22:51.121Z,6.90
2019-04-20T23:25:20.946Z,6.90
2019-04-20T23:27:51.206Z,6.70
2019-04-20T23:30:26.075Z,6.70
2019-04-20T23:32:51.787Z,6.70
2019-04-20T23:35:24.443Z,6.60
2019-04-20T23:37:55.106Z,6.60
2019-04-20T23:40:23.551Z,6.60
2019-04-20T23:43:03.334Z,6.60
2019-04-20T23:45:54.850Z,6.50
2019-04-20T23:48:38.944Z,6.50
2019-04-20T23:51:29.593Z,6.40
2019-04-20T23:53:48.137Z,6.40
2019-04-20T23:56:07.810Z,6.30
2019-04-20T23:58:42.999Z,6.40
